sensor_id;sensor_type;location;lat;lon;timestamp;P1;durP1;ratioP1;P2;durP2;ratioP2
49852;SDS011;35751;48.072;11.688;2022-09-17T00:01:29;9.00;;;5.03;;
49852;SDS011;35751;48.072;11.688;2022-09-17T00:03:56;5.32;;;4.20;;
49852;SDS011;35751;48.072;11.688;2022-09-17T00:06:24;5.80;;;4.18;;
49852;SDS011;35751;48.072;11.688;2022-09-17T00:08:50;8.43;;;5.00;;
49852;SDS011;35751;48.072;11.688;2022-09-17T00:11:17;5.80;;;5.03;;
49852;SDS011;35751;48.072;11.688;2022-09-17T00:13:45;5.75;;;4.45;;
49852;SDS011;35751;48.072;11.688;2022-09-17T00:16:11;7.63;;;4.25;;
49852;SDS011;35751;48.072;11.688;2022-09-17T00:18:36;6.60;;;4.03;;
49852;SDS011;35751;48.072;11.688;2022-09-17T00:21:05;5.78;;;4.53;;
49852;SDS011;35751;48.072;11.688;2022-09-17T00:23:31;6.13;;;3.95;;
49852;SDS011;35751;48.072;11.688;2022-09-17T00:25:57;6.32;;;4.07;;
49852;SDS011;35751;48.072;11.688;2022-09-17T00:28:23;7.75;;;4.20;;
49852;SDS011;35751;48.072;11.688;2022-09-17T00:30:48;6.95;;;4.38;;
49852;SDS011;35751;48.072;11.688;2022-09-17T00:33:14;5.20;;;4.18;;
49852;SDS011;35751;48.072;11.688;2022-09-17T00:35:41;4.90;;;3.67;;
49852;SDS011;35751;48.072;11.688;2022-09-17T00:38:07;5.13;;;3.85;;
49852;SDS011;35751;48.072;11.688;2022-09-17T00:40:32;5.97;;;4.05;;
49852;SDS011;35751;48.072;11.688;2022-09-17T00:42:58;8.25;;;4.55;;
49852;SDS011;35751;48.072;11.688;2022-09-17T00:45:23;4.68;;;4.10;;
49852;SDS011;35751;48.072;11.688;2022-09-17T00:48:03;5.50;;;3.70;;
49852;SDS011;35751;48.072;11.688;2022-09-17T00:50:39;6.18;;;4.25;;
49852;SDS011;35751;48.072;11.688;2022-09-17T00:55:35;3.80;;;2.95;;
49852;SDS011;35751;48.072;11.688;2022-09-17T00:58:04;3.50;;;2.95;;
49852;SDS011;35751;48.072;11.688;2022-09-17T01:00:31;7.43;;;3.38;;
49852;SDS011;35751;48.072;11.688;2022-09-17T01:02:56;6.78;;;3.85;;
49852;SDS011;35751;48.072;11.688;2022-09-17T01:05:30;3.83;;;2.92;;
49852;SDS011;35751;48.072;11.688;2022-09-17T01:08:31;8.32;;;3.70;;
49852;SDS011;35751;48.072;11.688;2022-09-17T01:14:57;5.35;;;3.00;;
49852;SDS011;35751;48.072;11.688;2022-09-17T01:17:11;4.65;;;3.58;;
49852;SDS011;35751;48.072;11.688;2022-09-17T01:25:20;4.70;;;2.60;;
49852;SDS011;35751;48.072;11.688;2022-09-17T01:38:44;2.67;;;1.80;;
49852;SDS011;35751;48.072;11.688;2022-09-17T01:43:58;2.80;;;2.08;;
49852;SDS011;35751;48.072;11.688;2022-09-17T01:48:59;5.75;;;2.20;;
49852;SDS011;35751;48.072;11.688;2022-09-17T01:51:27;2.80;;;2.08;;
49852;SDS011;35751;48.072;11.688;2022-09-17T01:53:55;6.35;;;2.80;;
49852;SDS011;35751;48.072;11.688;2022-09-17T01:56:24;4.25;;;2.10;;
49852;SDS011;35751;48.072;11.688;2022-09-17T02:01:50;3.03;;;2.30;;
49852;SDS011;35751;48.072;11.688;2022-09-17T02:04:20;3.83;;;2.17;;
49852;SDS011;35751;48.072;11.688;2022-09-17T02:06:50;2.47;;;2.15;;
49852;SDS011;35751;48.072;11.688;2022-09-17T02:09:21;2.58;;;2.17;;
49852;SDS011;35751;48.072;11.688;2022-09-17T02:11:52;4.80;;;2.63;;
49852;SDS011;35751;48.072;11.688;2022-09-17T02:14:20;3.42;;;2.75;;
49852;SDS011;35751;48.072;11.688;2022-09-17T02:16:50;4.82;;;2.72;;
49852;SDS011;35751;48.072;11.688;2022-09-17T02:19:20;7.18;;;2.67;;
49852;SDS011;35751;48.072;11.688;2022-09-17T02:21:52;2.85;;;2.28;;
49852;SDS011;35751;48.072;11.688;2022-09-17T02:29:47;5.40;;;2.30;;
49852;SDS011;35751;48.072;11.688;2022-09-17T02:32:13;6.20;;;2.30;;
49852;SDS011;35751;48.072;11.688;2022-09-17T02:34:38;3.75;;;2.22;;
49852;SDS011;35751;48.072;11.688;2022-09-17T02:37:04;4.68;;;2.20;;
49852;SDS011;35751;48.072;11.688;2022-09-17T02:39:30;4.75;;;2.40;;
49852;SDS011;35751;48.072;11.688;2022-09-17T02:44:48;5.38;;;2.78;;
49852;SDS011;35751;48.072;11.688;2022-09-17T02:53:27;2.40;;;1.70;;
49852;SDS011;35751;48.072;11.688;2022-09-17T02:58:37;2.58;;;1.92;;
49852;SDS011;35751;48.072;11.688;2022-09-17T03:01:08;6.03;;;2.25;;
49852;SDS011;35751;48.072;11.688;2022-09-17T03:03:58;2.03;;;1.60;;
49852;SDS011;35751;48.072;11.688;2022-09-17T03:06:26;5.07;;;1.50;;
49852;SDS011;35751;48.072;11.688;2022-09-17T03:08:51;2.47;;;1.60;;
49852;SDS011;35751;48.072;11.688;2022-09-17T03:11:16;1.75;;;1.40;;
49852;SDS011;35751;48.072;11.688;2022-09-17T03:13:42;2.33;;;1.42;;
49852;SDS011;35751;48.072;11.688;2022-09-17T03:16:07;2.53;;;1.60;;
49852;SDS011;35751;48.072;11.688;2022-09-17T03:18:33;2.17;;;1.40;;
49852;SDS011;35751;48.072;11.688;2022-09-17T03:20:59;1.90;;;1.45;;
49852;SDS011;35751;48.072;11.688;2022-09-17T03:23:24;1.75;;;1.50;;
49852;SDS011;35751;48.072;11.688;2022-09-17T03:25:51;1.20;;;1.10;;
49852;SDS011;35751;48.072;11.688;2022-09-17T03:28:17;2.72;;;1.60;;
49852;SDS011;35751;48.072;11.688;2022-09-17T03:30:43;3.42;;;1.48;;
49852;SDS011;35751;48.072;11.688;2022-09-17T03:33:08;7.53;;;1.23;;
49852;SDS011;35751;48.072;11.688;2022-09-17T03:35:34;2.47;;;1.42;;
49852;SDS011;35751;48.072;11.688;2022-09-17T03:37:59;8.40;;;2.55;;
49852;SDS011;35751;48.072;11.688;2022-09-17T03:40:25;3.00;;;1.25;;
49852;SDS011;35751;48.072;11.688;2022-09-17T03:42:50;1.50;;;1.20;;
49852;SDS011;35751;48.072;11.688;2022-09-17T03:45:15;4.65;;;1.63;;
49852;SDS011;35751;48.072;11.688;2022-09-17T03:47:41;1.95;;;1.20;;
49852;SDS011;35751;48.072;11.688;2022-09-17T03:50:06;2.25;;;1.52;;
49852;SDS011;35751;48.072;11.688;2022-09-17T03:52:32;2.00;;;1.58;;
49852;SDS011;35751;48.072;11.688;2022-09-17T03:54:57;3.60;;;1.40;;
49852;SDS011;35751;48.072;11.688;2022-09-17T03:57:22;3.17;;;2.22;;
49852;SDS011;35751;48.072;11.688;2022-09-17T03:59:48;5.10;;;2.25;;
49852;SDS011;35751;48.072;11.688;2022-09-17T04:02:13;1.95;;;1.52;;
49852;SDS011;35751;48.072;11.688;2022-09-17T04:04:39;4.45;;;1.70;;
49852;SDS011;35751;48.072;11.688;2022-09-17T04:07:04;3.50;;;1.65;;
49852;SDS011;35751;48.072;11.688;2022-09-17T04:09:30;4.57;;;1.75;;
49852;SDS011;35751;48.072;11.688;2022-09-17T04:11:55;3.25;;;1.95;;
49852;SDS011;35751;48.072;11.688;2022-09-17T04:14:20;3.03;;;1.98;;
49852;SDS011;35751;48.072;11.688;2022-09-17T04:16:46;3.30;;;2.08;;
49852;SDS011;35751;48.072;11.688;2022-09-17T04:19:11;1.98;;;1.77;;
49852;SDS011;35751;48.072;11.688;2022-09-17T04:21:36;4.07;;;1.67;;
49852;SDS011;35751;48.072;11.688;2022-09-17T04:24:02;3.30;;;2.03;;
49852;SDS011;35751;48.072;11.688;2022-09-17T04:26:27;2.80;;;2.00;;
49852;SDS011;35751;48.072;11.688;2022-09-17T04:28:53;3.10;;;2.22;;
49852;SDS011;35751;48.072;11.688;2022-09-17T04:31:18;2.47;;;1.80;;
49852;SDS011;35751;48.072;11.688;2022-09-17T04:33:43;2.08;;;1.50;;
49852;SDS011;35751;48.072;11.688;2022-09-17T04:36:09;4.28;;;2.20;;
49852;SDS011;35751;48.072;11.688;2022-09-17T04:38:34;2.90;;;2.30;;
49852;SDS011;35751;48.072;11.688;2022-09-17T04:40:59;3.05;;;2.15;;
49852;SDS011;35751;48.072;11.688;2022-09-17T04:43:25;4.30;;;2.30;;
49852;SDS011;35751;48.072;11.688;2022-09-17T04:45:50;5.15;;;1.90;;
49852;SDS011;35751;48.072;11.688;2022-09-17T04:48:16;6.15;;;2.15;;
49852;SDS011;35751;48.072;11.688;2022-09-17T04:50:41;4.07;;;2.33;;
49852;SDS011;35751;48.072;11.688;2022-09-17T04:53:07;3.92;;;2.05;;
49852;SDS011;35751;48.072;11.688;2022-09-17T04:55:32;2.25;;;1.80;;
49852;SDS011;35751;48.072;11.688;2022-09-17T04:57:58;4.15;;;2.33;;
49852;SDS011;35751;48.072;11.688;2022-09-17T05:00:23;2.78;;;2.08;;
49852;SDS011;35751;48.072;11.688;2022-09-17T05:02:50;3.65;;;2.05;;
49852;SDS011;35751;48.072;11.688;2022-09-17T05:05:17;1.95;;;1.73;;
49852;SDS011;35751;48.072;11.688;2022-09-17T05:07:43;3.03;;;2.17;;
49852;SDS011;35751;48.072;11.688;2022-09-17T05:10:09;7.28;;;2.90;;
49852;SDS011;35751;48.072;11.688;2022-09-17T05:12:35;3.67;;;2.40;;
49852;SDS011;35751;48.072;11.688;2022-09-17T05:15:01;3.38;;;2.25;;
49852;SDS011;35751;48.072;11.688;2022-09-17T05:17:26;6.32;;;2.83;;
49852;SDS011;35751;48.072;11.688;2022-09-17T05:19:52;4.70;;;2.55;;
49852;SDS011;35751;48.072;11.688;2022-09-17T05:22:17;4.53;;;1.98;;
49852;SDS011;35751;48.072;11.688;2022-09-17T05:24:43;3.20;;;2.10;;
49852;SDS011;35751;48.072;11.688;2022-09-17T05:27:08;5.20;;;2.83;;
49852;SDS011;35751;48.072;11.688;2022-09-17T05:29:33;4.20;;;2.20;;
49852;SDS011;35751;48.072;11.688;2022-09-17T05:32:00;4.65;;;2.28;;
49852;SDS011;35751;48.072;11.688;2022-09-17T05:34:26;2.88;;;1.90;;
49852;SDS011;35751;48.072;11.688;2022-09-17T05:36:52;4.50;;;2.05;;
49852;SDS011;35751;48.072;11.688;2022-09-17T05:39:17;2.88;;;2.03;;
49852;SDS011;35751;48.072;11.688;2022-09-17T05:41:44;4.75;;;1.60;;
49852;SDS011;35751;48.072;11.688;2022-09-17T05:44:10;2.17;;;1.88;;
49852;SDS011;35751;48.072;11.688;2022-09-17T05:46:35;3.65;;;2.47;;
49852;SDS011;35751;48.072;11.688;2022-09-17T05:49:00;3.17;;;2.25;;
49852;SDS011;35751;48.072;11.688;2022-09-17T05:51:26;2.92;;;2.20;;
49852;SDS011;35751;48.072;11.688;2022-09-17T05:53:52;3.17;;;2.38;;
49852;SDS011;35751;48.072;11.688;2022-09-17T05:56:19;2.78;;;2.40;;
49852;SDS011;35751;48.072;11.688;2022-09-17T05:58:45;5.40;;;3.58;;
49852;SDS011;35751;48.072;11.688;2022-09-17T06:01:11;3.63;;;2.72;;
49852;SDS011;35751;48.072;11.688;2022-09-17T06:03:40;2.88;;;2.30;;
49852;SDS011;35751;48.072;11.688;2022-09-17T06:06:05;3.58;;;2.28;;
49852;SDS011;35751;48.072;11.688;2022-09-17T06:08:32;3.78;;;2.50;;
49852;SDS011;35751;48.072;11.688;2022-09-17T06:11:02;4.55;;;2.58;;
49852;SDS011;35751;48.072;11.688;2022-09-17T06:13:28;5.57;;;3.50;;
49852;SDS011;35751;48.072;11.688;2022-09-17T06:15:53;4.10;;;2.72;;
49852;SDS011;35751;48.072;11.688;2022-09-17T06:18:19;3.42;;;3.03;;
49852;SDS011;35751;48.072;11.688;2022-09-17T06:20:51;4.05;;;2.67;;
49852;SDS011;35751;48.072;11.688;2022-09-17T06:25:52;3.97;;;2.58;;
49852;SDS011;35751;48.072;11.688;2022-09-17T06:28:19;3.22;;;1.98;;
49852;SDS011;35751;48.072;11.688;2022-09-17T06:30:44;5.63;;;2.85;;
49852;SDS011;35751;48.072;11.688;2022-09-17T06:33:09;2.50;;;1.90;;
49852;SDS011;35751;48.072;11.688;2022-09-17T06:35:35;7.97;;;2.55;;
49852;SDS011;35751;48.072;11.688;2022-09-17T06:38:02;2.47;;;2.28;;
49852;SDS011;35751;48.072;11.688;2022-09-17T06:40:28;4.55;;;2.10;;
49852;SDS011;35751;48.072;11.688;2022-09-17T06:42:57;2.58;;;2.33;;
49852;SDS011;35751;48.072;11.688;2022-09-17T06:45:24;3.97;;;2.53;;
49852;SDS011;35751;48.072;11.688;2022-09-17T06:47:52;6.35;;;2.08;;
49852;SDS011;35751;48.072;11.688;2022-09-17T06:50:17;9.05;;;2.85;;
49852;SDS011;35751;48.072;11.688;2022-09-17T06:52:50;5.38;;;2.28;;
49852;SDS011;35751;48.072;11.688;2022-09-17T06:55:16;7.60;;;2.55;;
49852;SDS011;35751;48.072;11.688;2022-09-17T06:57:41;4.68;;;2.17;;
49852;SDS011;35751;48.072;11.688;2022-09-17T07:00:07;3.03;;;1.92;;
49852;SDS011;35751;48.072;11.688;2022-09-17T07:02:33;3.50;;;2.20;;
49852;SDS011;35751;48.072;11.688;2022-09-17T07:04:59;4.90;;;2.35;;
49852;SDS011;35751;48.072;11.688;2022-09-17T07:07:24;5.25;;;1.98;;
49852;SDS011;35751;48.072;11.688;2022-09-17T07:09:49;2.58;;;1.75;;
49852;SDS011;35751;48.072;11.688;2022-09-17T07:12:15;3.92;;;2.03;;
49852;SDS011;35751;48.072;11.688;2022-09-17T07:14:40;3.60;;;2.05;;
49852;SDS011;35751;48.072;11.688;2022-09-17T07:17:05;4.78;;;2.25;;
49852;SDS011;35751;48.072;11.688;2022-09-17T07:19:31;5.55;;;2.08;;
49852;SDS011;35751;48.072;11.688;2022-09-17T07:21:56;3.47;;;2.08;;
49852;SDS011;35751;48.072;11.688;2022-09-17T07:24:22;4.18;;;2.35;;
49852;SDS011;35751;48.072;11.688;2022-09-17T07:26:48;3.38;;;1.80;;
49852;SDS011;35751;48.072;11.688;2022-09-17T07:29:14;5.97;;;2.28;;
49852;SDS011;35751;48.072;11.688;2022-09-17T07:31:39;2.33;;;2.05;;
49852;SDS011;35751;48.072;11.688;2022-09-17T07:34:04;5.90;;;1.98;;
49852;SDS011;35751;48.072;11.688;2022-09-17T07:36:30;3.20;;;2.00;;
49852;SDS011;35751;48.072;11.688;2022-09-17T07:38:55;4.60;;;2.35;;
49852;SDS011;35751;48.072;11.688;2022-09-17T07:41:20;3.30;;;2.42;;
49852;SDS011;35751;48.072;11.688;2022-09-17T07:43:45;4.65;;;2.17;;
49852;SDS011;35751;48.072;11.688;2022-09-17T07:46:17;5.97;;;2.00;;
49852;SDS011;35751;48.072;11.688;2022-09-17T07:48:43;6.15;;;1.95;;
49852;SDS011;35751;48.072;11.688;2022-09-17T07:51:20;4.45;;;1.73;;
49852;SDS011;35751;48.072;11.688;2022-09-17T07:53:51;4.57;;;2.35;;
49852;SDS011;35751;48.072;11.688;2022-09-17T07:56:17;5.43;;;1.60;;
49852;SDS011;35751;48.072;11.688;2022-09-17T07:58:42;3.58;;;1.30;;
49852;SDS011;35751;48.072;11.688;2022-09-17T08:01:08;4.05;;;1.70;;
49852;SDS011;35751;48.072;11.688;2022-09-17T08:03:35;9.20;;;2.00;;
49852;SDS011;35751;48.072;11.688;2022-09-17T08:06:04;3.65;;;1.83;;
49852;SDS011;35751;48.072;11.688;2022-09-17T08:08:37;4.70;;;1.73;;
49852;SDS011;35751;48.072;11.688;2022-09-17T08:11:04;3.78;;;1.40;;
49852;SDS011;35751;48.072;11.688;2022-09-17T08:13:33;7.32;;;1.77;;
49852;SDS011;35751;48.072;11.688;2022-09-17T08:16:05;3.67;;;1.50;;
49852;SDS011;35751;48.072;11.688;2022-09-17T08:18:32;2.00;;;1.42;;
49852;SDS011;35751;48.072;11.688;2022-09-17T08:20:58;1.75;;;1.50;;
49852;SDS011;35751;48.072;11.688;2022-09-17T08:23:25;3.67;;;2.33;;
49852;SDS011;35751;48.072;11.688;2022-09-17T08:25:54;2.75;;;1.60;;
49852;SDS011;35751;48.072;11.688;2022-09-17T08:28:20;3.38;;;1.50;;
49852;SDS011;35751;48.072;11.688;2022-09-17T08:30:46;8.60;;;2.38;;
49852;SDS011;35751;48.072;11.688;2022-09-17T08:33:13;2.22;;;1.27;;
49852;SDS011;35751;48.072;11.688;2022-09-17T08:35:39;4.80;;;1.55;;
49852;SDS011;35751;48.072;11.688;2022-09-17T08:38:04;7.63;;;2.08;;
49852;SDS011;35751;48.072;11.688;2022-09-17T08:40:31;5.28;;;1.90;;
49852;SDS011;35751;48.072;11.688;2022-09-17T08:43:00;3.63;;;1.55;;
49852;SDS011;35751;48.072;11.688;2022-09-17T08:45:26;9.13;;;1.90;;
49852;SDS011;35751;48.072;11.688;2022-09-17T08:47:53;5.47;;;1.75;;
49852;SDS011;35751;48.072;11.688;2022-09-17T08:50:25;2.97;;;1.45;;
49852;SDS011;35751;48.072;11.688;2022-09-17T08:53:13;4.18;;;1.23;;
49852;SDS011;35751;48.072;11.688;2022-09-17T08:56:01;3.42;;;1.92;;
49852;SDS011;35751;48.072;11.688;2022-09-17T08:58:40;4.25;;;1.85;;
49852;SDS011;35751;48.072;11.688;2022-09-17T09:01:33;7.70;;;1.73;;
49852;SDS011;35751;48.072;11.688;2022-09-17T09:06:57;4.75;;;1.67;;
49852;SDS011;35751;48.072;11.688;2022-09-17T09:09:37;3.38;;;1.50;;
49852;SDS011;35751;48.072;11.688;2022-09-17T09:12:06;3.53;;;1.67;;
49852;SDS011;35751;48.072;11.688;2022-09-17T09:17:43;3.13;;;1.58;;
49852;SDS011;35751;48.072;11.688;2022-09-17T09:26:18;5.65;;;1.92;;
49852;SDS011;35751;48.072;11.688;2022-09-17T09:33:48;1.73;;;1.45;;
49852;SDS011;35751;48.072;11.688;2022-09-17T09:36:14;4.93;;;1.60;;
49852;SDS011;35751;48.072;11.688;2022-09-17T09:38:47;6.03;;;1.70;;
49852;SDS011;35751;48.072;11.688;2022-09-17T09:41:22;4.72;;;1.95;;
49852;SDS011;35751;48.072;11.688;2022-09-17T09:44:02;2.67;;;1.30;;
49852;SDS011;35751;48.072;11.688;2022-09-17T09:56:56;3.05;;;1.60;;
49852;SDS011;35751;48.072;11.688;2022-09-17T09:59:22;6.15;;;1.90;;
49852;SDS011;35751;48.072;11.688;2022-09-17T10:01:49;9.88;;;2.70;;
49852;SDS011;35751;48.072;11.688;2022-09-17T10:04:19;4.15;;;2.10;;
49852;SDS011;35751;48.072;11.688;2022-09-17T10:06:47;3.53;;;1.60;;
49852;SDS011;35751;48.072;11.688;2022-09-17T10:09:14;3.55;;;1.95;;
49852;SDS011;35751;48.072;11.688;2022-09-17T10:11:41;2.70;;;1.50;;
49852;SDS011;35751;48.072;11.688;2022-09-17T10:16:48;4.93;;;2.40;;
49852;SDS011;35751;48.072;11.688;2022-09-17T10:19:20;4.40;;;1.83;;
49852;SDS011;35751;48.072;11.688;2022-09-17T10:21:49;3.22;;;1.85;;
49852;SDS011;35751;48.072;11.688;2022-09-17T10:24:25;2.60;;;1.88;;
49852;SDS011;35751;48.072;11.688;2022-09-17T10:27:06;3.58;;;1.90;;
49852;SDS011;35751;48.072;11.688;2022-09-17T10:29:40;3.47;;;1.77;;
49852;SDS011;35751;48.072;11.688;2022-09-17T10:32:11;3.67;;;1.80;;
49852;SDS011;35751;48.072;11.688;2022-09-17T10:34:39;3.78;;;1.83;;
49852;SDS011;35751;48.072;11.688;2022-09-17T10:37:08;5.68;;;1.80;;
49852;SDS011;35751;48.072;11.688;2022-09-17T10:39:59;3.25;;;1.50;;
49852;SDS011;35751;48.072;11.688;2022-09-17T10:42:25;3.40;;;2.10;;
49852;SDS011;35751;48.072;11.688;2022-09-17T10:44:51;3.50;;;2.30;;
49852;SDS011;35751;48.072;11.688;2022-09-17T10:47:25;6.15;;;2.70;;
49852;SDS011;35751;48.072;11.688;2022-09-17T10:49:54;3.22;;;2.10;;
49852;SDS011;35751;48.072;11.688;2022-09-17T10:52:31;5.00;;;2.05;;
49852;SDS011;35751;48.072;11.688;2022-09-17T10:55:44;6.80;;;2.40;;
49852;SDS011;35751;48.072;11.688;2022-09-17T11:00:22;3.05;;;2.00;;
49852;SDS011;35751;48.072;11.688;2022-09-17T11:06:39;5.57;;;2.20;;
49852;SDS011;35751;48.072;11.688;2022-09-17T11:09:01;3.67;;;1.60;;
49852;SDS011;35751;48.072;11.688;2022-09-17T11:16:59;3.78;;;2.25;;
49852;SDS011;35751;48.072;11.688;2022-09-17T11:19:47;5.25;;;2.60;;
49852;SDS011;35751;48.072;11.688;2022-09-17T11:25:38;5.00;;;1.83;;
49852;SDS011;35751;48.072;11.688;2022-09-17T11:30:43;3.00;;;1.33;;
49852;SDS011;35751;48.072;11.688;2022-09-17T11:33:51;3.38;;;2.10;;
49852;SDS011;35751;48.072;11.688;2022-09-17T11:36:34;4.75;;;1.88;;
49852;SDS011;35751;48.072;11.688;2022-09-17T11:39:09;2.40;;;1.50;;
49852;SDS011;35751;48.072;11.688;2022-09-17T11:41:43;6.13;;;1.45;;
49852;SDS011;35751;48.072;11.688;2022-09-17T11:46:42;4.18;;;1.52;;
49852;SDS011;35751;48.072;11.688;2022-09-17T11:54:19;3.30;;;1.25;;
49852;SDS011;35751;48.072;11.688;2022-09-17T11:57:04;4.55;;;1.40;;
49852;SDS011;35751;48.072;11.688;2022-09-17T11:59:38;1.70;;;1.20;;
49852;SDS011;35751;48.072;11.688;2022-09-17T12:04:48;7.00;;;1.77;;
49852;SDS011;35751;48.072;11.688;2022-09-17T12:12:40;1.25;;;1.15;;
49852;SDS011;35751;48.072;11.688;2022-09-17T12:15:19;6.75;;;1.77;;
49852;SDS011;35751;48.072;11.688;2022-09-17T12:17:48;2.45;;;1.60;;
49852;SDS011;35751;48.072;11.688;2022-09-17T12:20:32;2.55;;;1.15;;
49852;SDS011;35751;48.072;11.688;2022-09-17T12:23:01;4.95;;;2.17;;
49852;SDS011;35751;48.072;11.688;2022-09-17T12:25:33;1.75;;;0.90;;
49852;SDS011;35751;48.072;11.688;2022-09-17T12:28:06;3.55;;;1.30;;
49852;SDS011;35751;48.072;11.688;2022-09-17T12:30:37;3.85;;;1.40;;
49852;SDS011;35751;48.072;11.688;2022-09-17T12:39:21;4.15;;;1.80;;
49852;SDS011;35751;48.072;11.688;2022-09-17T12:45:02;6.03;;;2.00;;
49852;SDS011;35751;48.072;11.688;2022-09-17T12:53:33;4.45;;;1.70;;
49852;SDS011;35751;48.072;11.688;2022-09-17T12:56:06;2.85;;;2.20;;
49852;SDS011;35751;48.072;11.688;2022-09-17T13:01:21;2.78;;;1.60;;
49852;SDS011;35751;48.072;11.688;2022-09-17T13:03:54;5.03;;;1.92;;
49852;SDS011;35751;48.072;11.688;2022-09-17T13:09:44;5.32;;;2.45;;
49852;SDS011;35751;48.072;11.688;2022-09-17T13:15:32;2.88;;;2.20;;
49852;SDS011;35751;48.072;11.688;2022-09-17T13:20:59;2.05;;;1.67;;
49852;SDS011;35751;48.072;11.688;2022-09-17T13:23:40;6.35;;;2.05;;
49852;SDS011;35751;48.072;11.688;2022-09-17T13:26:09;4.25;;;1.83;;
49852;SDS011;35751;48.072;11.688;2022-09-17T13:28:43;4.95;;;2.25;;
49852;SDS011;35751;48.072;11.688;2022-09-17T13:31:12;2.97;;;2.00;;
49852;SDS011;35751;48.072;11.688;2022-09-17T13:33:51;3.15;;;1.90;;
49852;SDS011;35751;48.072;11.688;2022-09-17T13:39:08;4.35;;;3.05;;
49852;SDS011;35751;48.072;11.688;2022-09-17T13:41:37;3.13;;;1.90;;
49852;SDS011;35751;48.072;11.688;2022-09-17T13:44:03;3.10;;;1.40;;
49852;SDS011;35751;48.072;11.688;2022-09-17T13:46:29;4.05;;;1.48;;
49852;SDS011;35751;48.072;11.688;2022-09-17T13:49:02;2.83;;;1.60;;
49852;SDS011;35751;48.072;11.688;2022-09-17T13:54:02;4.85;;;2.25;;
49852;SDS011;35751;48.072;11.688;2022-09-17T13:56:33;3.72;;;1.75;;
49852;SDS011;35751;48.072;11.688;2022-09-17T13:59:08;3.63;;;2.80;;
49852;SDS011;35751;48.072;11.688;2022-09-17T14:01:55;4.05;;;1.75;;
49852;SDS011;35751;48.072;11.688;2022-09-17T14:09:53;2.03;;;1.25;;
49852;SDS011;35751;48.072;11.688;2022-09-17T14:20:52;3.22;;;1.60;;
49852;SDS011;35751;48.072;11.688;2022-09-17T14:23:19;2.60;;;1.90;;
49852;SDS011;35751;48.072;11.688;2022-09-17T14:25:49;4.20;;;1.77;;
49852;SDS011;35751;48.072;11.688;2022-09-17T14:30:54;2.03;;;1.80;;
49852;SDS011;35751;48.072;11.688;2022-09-17T14:33:22;2.15;;;1.48;;
49852;SDS011;35751;48.072;11.688;2022-09-17T14:35:52;2.72;;;1.65;;
49852;SDS011;35751;48.072;11.688;2022-09-17T14:38:22;5.60;;;1.88;;
49852;SDS011;35751;48.072;11.688;2022-09-17T14:41:01;4.28;;;1.60;;
49852;SDS011;35751;48.072;11.688;2022-09-17T14:46:22;5.45;;;1.58;;
49852;SDS011;35751;48.072;11.688;2022-09-17T14:48:49;2.08;;;1.30;;
49852;SDS011;35751;48.072;11.688;2022-09-17T14:54:26;1.60;;;1.42;;
49852;SDS011;35751;48.072;11.688;2022-09-17T14:56:46;4.78;;;1.70;;
49852;SDS011;35751;48.072;11.688;2022-09-17T14:59:16;4.45;;;1.73;;
49852;SDS011;35751;48.072;11.688;2022-09-17T15:01:58;4.30;;;1.58;;
49852;SDS011;35751;48.072;11.688;2022-09-17T15:04:24;4.75;;;2.03;;
49852;SDS011;35751;48.072;11.688;2022-09-17T15:06:51;6.68;;;1.90;;
49852;SDS011;35751;48.072;11.688;2022-09-17T15:09:25;5.05;;;1.85;;
49852;SDS011;35751;48.072;11.688;2022-09-17T15:11:52;4.05;;;2.17;;
49852;SDS011;35751;48.072;11.688;2022-09-17T15:14:20;4.63;;;2.63;;
49852;SDS011;35751;48.072;11.688;2022-09-17T15:16:49;3.83;;;2.20;;
49852;SDS011;35751;48.072;11.688;2022-09-17T15:19:25;2.47;;;1.60;;
49852;SDS011;35751;48.072;11.688;2022-09-17T15:21:55;1.92;;;1.05;;
49852;SDS011;35751;48.072;11.688;2022-09-17T15:24:30;1.55;;;1.27;;
49852;SDS011;35751;48.072;11.688;2022-09-17T15:29:23;1.65;;;1.13;;
49852;SDS011;35751;48.072;11.688;2022-09-17T15:31:51;4.13;;;1.20;;
49852;SDS011;35751;48.072;11.688;2022-09-17T15:34:16;3.53;;;1.35;;
49852;SDS011;35751;48.072;11.688;2022-09-17T15:37:01;2.30;;;1.40;;
49852;SDS011;35751;48.072;11.688;2022-09-17T15:39:29;2.22;;;1.17;;
49852;SDS011;35751;48.072;11.688;2022-09-17T15:41:55;2.67;;;1.02;;
49852;SDS011;35751;48.072;11.688;2022-09-17T15:44:24;1.45;;;0.80;;
49852;SDS011;35751;48.072;11.688;2022-09-17T15:46:51;1.00;;;0.90;;
49852;SDS011;35751;48.072;11.688;2022-09-17T15:49:34;1.98;;;0.73;;
49852;SDS011;35751;48.072;11.688;2022-09-17T15:52:23;0.95;;;0.70;;
49852;SDS011;35751;48.072;11.688;2022-09-17T15:54:53;1.85;;;0.70;;
49852;SDS011;35751;48.072;11.688;2022-09-17T15:57:19;8.45;;;1.00;;
49852;SDS011;35751;48.072;11.688;2022-09-17T15:59:45;2.08;;;0.70;;
49852;SDS011;35751;48.072;11.688;2022-09-17T16:02:23;1.42;;;1.33;;
49852;SDS011;35751;48.072;11.688;2022-09-17T16:07:37;1.40;;;0.80;;
49852;SDS011;35751;48.072;11.688;2022-09-17T16:10:04;2.85;;;1.25;;
49852;SDS011;35751;48.072;11.688;2022-09-17T16:12:30;3.17;;;1.73;;
49852;SDS011;35751;48.072;11.688;2022-09-17T16:14:56;1.63;;;0.70;;
49852;SDS011;35751;48.072;11.688;2022-09-17T16:17:27;2.20;;;0.90;;
49852;SDS011;35751;48.072;11.688;2022-09-17T16:19:57;2.65;;;1.00;;
49852;SDS011;35751;48.072;11.688;2022-09-17T16:22:42;0.80;;;0.80;;
49852;SDS011;35751;48.072;11.688;2022-09-17T16:25:09;3.08;;;1.27;;
49852;SDS011;35751;48.072;11.688;2022-09-17T16:27:51;3.53;;;1.00;;
49852;SDS011;35751;48.072;11.688;2022-09-17T16:30:28;1.63;;;0.90;;
49852;SDS011;35751;48.072;11.688;2022-09-17T16:32:53;1.48;;;1.02;;
49852;SDS011;35751;48.072;11.688;2022-09-17T16:35:20;3.55;;;1.00;;
49852;SDS011;35751;48.072;11.688;2022-09-17T16:37:47;1.83;;;1.17;;
49852;SDS011;35751;48.072;11.688;2022-09-17T16:40:13;1.25;;;0.82;;
49852;SDS011;35751;48.072;11.688;2022-09-17T16:42:39;2.03;;;1.10;;
49852;SDS011;35751;48.072;11.688;2022-09-17T16:45:05;1.00;;;0.70;;
49852;SDS011;35751;48.072;11.688;2022-09-17T16:47:37;3.05;;;1.30;;
49852;SDS011;35751;48.072;11.688;2022-09-17T16:50:04;2.47;;;1.00;;
49852;SDS011;35751;48.072;11.688;2022-09-17T16:52:31;1.58;;;0.85;;
49852;SDS011;35751;48.072;11.688;2022-09-17T16:54:57;2.53;;;0.85;;
49852;SDS011;35751;48.072;11.688;2022-09-17T16:57:22;1.58;;;0.93;;
49852;SDS011;35751;48.072;11.688;2022-09-17T16:59:47;2.85;;;1.50;;
49852;SDS011;35751;48.072;11.688;2022-09-17T17:02:13;2.60;;;1.00;;
49852;SDS011;35751;48.072;11.688;2022-09-17T17:04:38;2.42;;;1.08;;
49852;SDS011;35751;48.072;11.688;2022-09-17T17:07:03;1.00;;;0.80;;
49852;SDS011;35751;48.072;11.688;2022-09-17T17:09:29;0.88;;;0.80;;
49852;SDS011;35751;48.072;11.688;2022-09-17T17:11:54;1.23;;;1.00;;
49852;SDS011;35751;48.072;11.688;2022-09-17T17:14:20;1.73;;;0.70;;
49852;SDS011;35751;48.072;11.688;2022-09-17T17:16:45;0.75;;;0.75;;
49852;SDS011;35751;48.072;11.688;2022-09-17T17:19:10;2.28;;;0.90;;
49852;SDS011;35751;48.072;11.688;2022-09-17T17:21:36;1.50;;;1.13;;
49852;SDS011;35751;48.072;11.688;2022-09-17T17:24:01;1.10;;;0.90;;
49852;SDS011;35751;48.072;11.688;2022-09-17T17:26:27;1.85;;;1.17;;
49852;SDS011;35751;48.072;11.688;2022-09-17T17:28:52;2.40;;;1.00;;
49852;SDS011;35751;48.072;11.688;2022-09-17T17:31:17;2.53;;;1.15;;
49852;SDS011;35751;48.072;11.688;2022-09-17T17:33:43;3.65;;;1.45;;
49852;SDS011;35751;48.072;11.688;2022-09-17T17:36:08;4.28;;;1.30;;
49852;SDS011;35751;48.072;11.688;2022-09-17T17:38:34;1.60;;;1.00;;